Historyczne dane pomiarowe

Dodano dane terminowe – wersja testowa.

Dane z okresu 1951-2019

Wersja bazy: 1.34 [2019-03-16, lista zmian], aktualizacja planowana na 2019-04-15

Dane meteo z obszaru Polski uzyskane na podstawie danych udostępnionych przez Instytut Meteorologii i Gospodarki Wodnej – Państwowy Instytut Badawczy.

 

Wybierz Datę:    

       

TemperaturaWilgotnośćWiatrCiśnienieOpadyŚniegCzas trwania zjawisk
 Stacja t tx tn tng RH VA  wxwx mslp ppp RRR   cm mm wxwxwxwxwxwxwx
2012-07-16 15.3 20.3 12.2 9.3-- 5.0----- 2.4------------
2012-07-17 13.8 19.8 8.7 7.3-- 4.3----- 6.8------------
2012-07-18 14.1 19.3 10.2 8.8-- 5.3----- 5.7------------
2012-07-19 15.8 22.8 11.7 11.2-- 5.3----- 1.3------------
2012-07-20 14.9 19.3 11.2 9.8-- 6.3----- 1.9------------
2012-07-21 15.2 19.8 10.7 9.8-- 4.3----- 0.0------------
2012-07-22 16.4 21.3 10.7 6.8-- 4.3----- 0.0------------
2012-07-23 16.5 22.8 8.7 3.3-- 2.0----- 0.0------------
2012-07-24 19.7 26.9 9.7 7.8-- 2.3----- 0.0------------
2012-07-25 20.8 29.4 10.2 6.3-- 2.3----- 0.0------------
2012-07-26 20.7 24.4 15.2 13.2-- 6.7----- 0.0------------
2012-07-27 24.4 31.9 17.7 14.7-- 1.0----- 0.0------------
2012-07-28 25.6 33.4 16.7 13.7-- 2.0----- 0.0------------
2012-07-29 25.7 34.4 21.2 17.7-- 3.3----- 0.4------------
2012-07-30 20.1 22.3 17.2 15.2-- 5.3----- 10.0------------
2012-07-31 19.7 25.9 13.7 11.2-- 3.7----- 0.0------------
2012-08-01 19.4 24.9 15.2 14.2-- 2.0----- 0.0------------
2012-08-02 20.7 27.9 11.7 8.3-- 2.0----- 0.0------------
2012-08-03 23.2 31.9 17.3 13.2-- 4.3----- 5.3------------
2012-08-04 20.9 25.9 16.7 15.5-- 5.7----- 0.0------------
2012-08-05 20.7 28.4 10.7 10.2-- 3.0----- 0.5------------
2012-08-06 23.1 30.9 17.2 15.2-- 4.7----- 33.0------------
2012-08-07 18.8 26.9 15.0 14.7-- 5.7----- 6.5------------
2012-08-08 16.7 22.3 12.7 10.7-- 2.3----- 0.1------------
2012-08-09 15.3 20.8 11.2 9.8-- 4.3----- 0.9------------
2012-08-10 14.0 18.8 10.7 8.8-- 6.0----- 5.0------------
2012-08-11 14.7 19.3 12.7 11.7-- 5.0----- 0.0------------
2012-08-12 13.4 18.8 7.7 4.3-- 5.7----- 0.0------------
2012-08-13 13.4 16.3 10.7 6.8-- 7.7----- 27.0------------
2012-08-14 12.7 13.8 11.7 11.2-- 8.0----- 4.4------------
145.8 ms

 

Źródłem pochodzenia danych jest Instytut Meteorologii i Gospodarki Wodnej – Państwowy Instytut Badawczy. Dane Instytutu Meteorologii i Gospodarki Wodnej – Państwowego Instytutu Badawczego zostały przetworzone.

Dane źródłowe można odnaleźć na stronie https://dane.imgw.pl